sensor_id;sensor_type;location;lat;lon;timestamp;P1;durP1;ratioP1;P2;durP2;ratioP2
8881;SDS011;4477;48.736;9.176;2023-04-08T00:01:49;32.63;;;25.63;;
8881;SDS011;4477;48.736;9.176;2023-04-08T00:04:17;31.80;;;24.63;;
8881;SDS011;4477;48.736;9.176;2023-04-08T00:06:44;30.87;;;23.60;;
8881;SDS011;4477;48.736;9.176;2023-04-08T00:09:11;33.67;;;25.87;;
8881;SDS011;4477;48.736;9.176;2023-04-08T00:11:38;31.50;;;24.37;;
8881;SDS011;4477;48.736;9.176;2023-04-08T00:14:06;33.50;;;25.30;;
8881;SDS011;4477;48.736;9.176;2023-04-08T00:16:35;33.00;;;24.90;;
8881;SDS011;4477;48.736;9.176;2023-04-08T00:19:02;31.30;;;24.97;;
8881;SDS011;4477;48.736;9.176;2023-04-08T00:21:30;30.40;;;23.87;;
8881;SDS011;4477;48.736;9.176;2023-04-08T00:23:57;31.27;;;24.50;;
8881;SDS011;4477;48.736;9.176;2023-04-08T00:26:25;31.97;;;25.27;;
8881;SDS011;4477;48.736;9.176;2023-04-08T00:28:52;32.73;;;25.20;;
8881;SDS011;4477;48.736;9.176;2023-04-08T00:31:19;29.80;;;24.20;;
8881;SDS011;4477;48.736;9.176;2023-04-08T00:33:48;26.53;;;21.83;;
8881;SDS011;4477;48.736;9.176;2023-04-08T00:36:15;29.70;;;23.03;;
8881;SDS011;4477;48.736;9.176;2023-04-08T00:38:43;28.77;;;22.03;;
8881;SDS011;4477;48.736;9.176;2023-04-08T00:41:10;28.70;;;23.33;;
8881;SDS011;4477;48.736;9.176;2023-04-08T00:43:37;28.73;;;22.00;;
8881;SDS011;4477;48.736;9.176;2023-04-08T00:46:05;27.70;;;22.70;;
8881;SDS011;4477;48.736;9.176;2023-04-08T00:48:32;29.93;;;23.43;;
8881;SDS011;4477;48.736;9.176;2023-04-08T00:51:01;29.57;;;23.50;;
8881;SDS011;4477;48.736;9.176;2023-04-08T00:53:29;29.37;;;23.63;;
8881;SDS011;4477;48.736;9.176;2023-04-08T00:55:57;26.73;;;23.23;;
8881;SDS011;4477;48.736;9.176;2023-04-08T00:58:25;28.43;;;24.33;;
8881;SDS011;4477;48.736;9.176;2023-04-08T01:00:54;27.47;;;23.70;;
8881;SDS011;4477;48.736;9.176;2023-04-08T01:03:29;27.73;;;23.20;;
8881;SDS011;4477;48.736;9.176;2023-04-08T01:06:03;29.23;;;23.83;;
8881;SDS011;4477;48.736;9.176;2023-04-08T01:08:32;26.87;;;23.47;;
8881;SDS011;4477;48.736;9.176;2023-04-08T01:11:01;30.07;;;23.30;;
8881;SDS011;4477;48.736;9.176;2023-04-08T01:13:30;25.57;;;22.03;;
8881;SDS011;4477;48.736;9.176;2023-04-08T01:16:00;26.90;;;21.47;;
8881;SDS011;4477;48.736;9.176;2023-04-08T01:18:27;27.00;;;22.00;;
8881;SDS011;4477;48.736;9.176;2023-04-08T01:20:55;25.33;;;22.20;;
8881;SDS011;4477;48.736;9.176;2023-04-08T01:23:24;24.43;;;21.10;;
8881;SDS011;4477;48.736;9.176;2023-04-08T01:25:57;25.73;;;21.67;;
8881;SDS011;4477;48.736;9.176;2023-04-08T01:28:25;27.10;;;22.70;;
8881;SDS011;4477;48.736;9.176;2023-04-08T01:30:54;26.63;;;23.00;;
8881;SDS011;4477;48.736;9.176;2023-04-08T01:33:22;27.60;;;23.53;;
8881;SDS011;4477;48.736;9.176;2023-04-08T01:35:50;27.00;;;21.83;;
8881;SDS011;4477;48.736;9.176;2023-04-08T01:38:18;26.37;;;22.00;;
8881;SDS011;4477;48.736;9.176;2023-04-08T01:40:46;24.20;;;20.00;;
8881;SDS011;4477;48.736;9.176;2023-04-08T01:43:15;22.50;;;18.83;;
8881;SDS011;4477;48.736;9.176;2023-04-08T01:45:43;21.50;;;18.03;;
8881;SDS011;4477;48.736;9.176;2023-04-08T01:48:11;20.27;;;17.77;;
8881;SDS011;4477;48.736;9.176;2023-04-08T01:50:39;21.47;;;18.30;;
8881;SDS011;4477;48.736;9.176;2023-04-08T01:53:07;23.37;;;19.67;;
8881;SDS011;4477;48.736;9.176;2023-04-08T01:55:35;25.73;;;21.53;;
8881;SDS011;4477;48.736;9.176;2023-04-08T01:58:03;26.77;;;21.07;;
8881;SDS011;4477;48.736;9.176;2023-04-08T02:00:32;27.17;;;22.23;;
8881;SDS011;4477;48.736;9.176;2023-04-08T02:03:01;26.93;;;22.90;;
8881;SDS011;4477;48.736;9.176;2023-04-08T02:05:28;27.63;;;22.53;;
8881;SDS011;4477;48.736;9.176;2023-04-08T02:07:55;25.83;;;22.20;;
8881;SDS011;4477;48.736;9.176;2023-04-08T02:10:22;27.27;;;23.17;;
8881;SDS011;4477;48.736;9.176;2023-04-08T02:12:49;28.60;;;22.70;;
8881;SDS011;4477;48.736;9.176;2023-04-08T02:15:17;27.33;;;22.97;;
8881;SDS011;4477;48.736;9.176;2023-04-08T02:17:46;27.53;;;23.20;;
8881;SDS011;4477;48.736;9.176;2023-04-08T02:20:15;29.47;;;23.23;;
8881;SDS011;4477;48.736;9.176;2023-04-08T02:22:45;28.27;;;23.27;;
8881;SDS011;4477;48.736;9.176;2023-04-08T02:25:14;28.90;;;23.87;;
8881;SDS011;4477;48.736;9.176;2023-04-08T02:27:41;29.77;;;22.90;;
8881;SDS011;4477;48.736;9.176;2023-04-08T02:30:09;29.57;;;23.13;;
8881;SDS011;4477;48.736;9.176;2023-04-08T02:32:37;28.40;;;23.37;;
8881;SDS011;4477;48.736;9.176;2023-04-08T02:35:06;28.97;;;24.03;;
8881;SDS011;4477;48.736;9.176;2023-04-08T02:37:35;28.20;;;23.97;;
8881;SDS011;4477;48.736;9.176;2023-04-08T02:40:02;28.93;;;24.40;;
8881;SDS011;4477;48.736;9.176;2023-04-08T02:42:29;32.00;;;24.77;;
8881;SDS011;4477;48.736;9.176;2023-04-08T02:44:56;31.17;;;24.97;;
8881;SDS011;4477;48.736;9.176;2023-04-08T02:47:24;30.43;;;24.67;;
8881;SDS011;4477;48.736;9.176;2023-04-08T02:49:51;33.37;;;26.27;;
8881;SDS011;4477;48.736;9.176;2023-04-08T02:52:20;34.23;;;26.20;;
8881;SDS011;4477;48.736;9.176;2023-04-08T02:54:47;34.30;;;25.63;;
8881;SDS011;4477;48.736;9.176;2023-04-08T02:57:15;34.80;;;25.07;;
8881;SDS011;4477;48.736;9.176;2023-04-08T02:59:42;35.67;;;24.97;;
8881;SDS011;4477;48.736;9.176;2023-04-08T03:02:09;33.47;;;25.93;;
8881;SDS011;4477;48.736;9.176;2023-04-08T03:04:36;34.67;;;27.20;;
8881;SDS011;4477;48.736;9.176;2023-04-08T03:07:03;34.20;;;24.73;;
8881;SDS011;4477;48.736;9.176;2023-04-08T03:09:32;36.53;;;25.87;;
8881;SDS011;4477;48.736;9.176;2023-04-08T03:11:59;35.27;;;25.10;;
8881;SDS011;4477;48.736;9.176;2023-04-08T03:14:26;36.60;;;25.97;;
8881;SDS011;4477;48.736;9.176;2023-04-08T03:16:53;35.87;;;25.73;;
8881;SDS011;4477;48.736;9.176;2023-04-08T03:19:20;36.40;;;25.93;;
8881;SDS011;4477;48.736;9.176;2023-04-08T03:21:47;35.90;;;25.13;;
8881;SDS011;4477;48.736;9.176;2023-04-08T03:24:14;30.53;;;23.07;;
8881;SDS011;4477;48.736;9.176;2023-04-08T03:26:43;30.57;;;23.80;;
8881;SDS011;4477;48.736;9.176;2023-04-08T03:29:10;33.83;;;23.73;;
8881;SDS011;4477;48.736;9.176;2023-04-08T03:31:37;33.77;;;24.30;;
8881;SDS011;4477;48.736;9.176;2023-04-08T03:34:04;29.23;;;22.70;;
8881;SDS011;4477;48.736;9.176;2023-04-08T03:36:31;30.23;;;23.13;;
8881;SDS011;4477;48.736;9.176;2023-04-08T03:38:58;33.13;;;22.23;;
8881;SDS011;4477;48.736;9.176;2023-04-08T03:41:27;28.80;;;21.83;;
8881;SDS011;4477;48.736;9.176;2023-04-08T03:43:56;30.67;;;21.90;;
8881;SDS011;4477;48.736;9.176;2023-04-08T03:46:24;25.97;;;19.43;;
8881;SDS011;4477;48.736;9.176;2023-04-08T03:48:51;25.57;;;19.13;;
8881;SDS011;4477;48.736;9.176;2023-04-08T03:51:18;22.80;;;16.93;;
8881;SDS011;4477;48.736;9.176;2023-04-08T03:53:45;23.17;;;17.10;;
8881;SDS011;4477;48.736;9.176;2023-04-08T03:56:13;19.40;;;15.83;;
8881;SDS011;4477;48.736;9.176;2023-04-08T03:58:40;21.97;;;16.77;;
8881;SDS011;4477;48.736;9.176;2023-04-08T04:01:08;20.43;;;14.87;;
8881;SDS011;4477;48.736;9.176;2023-04-08T04:03:35;18.67;;;15.53;;
8881;SDS011;4477;48.736;9.176;2023-04-08T04:06:03;19.37;;;14.63;;
8881;SDS011;4477;48.736;9.176;2023-04-08T04:08:30;20.20;;;15.57;;
8881;SDS011;4477;48.736;9.176;2023-04-08T04:10:58;18.87;;;14.40;;
8881;SDS011;4477;48.736;9.176;2023-04-08T04:13:25;19.37;;;14.80;;
8881;SDS011;4477;48.736;9.176;2023-04-08T04:15:52;19.53;;;14.83;;
8881;SDS011;4477;48.736;9.176;2023-04-08T04:18:20;21.13;;;15.47;;
8881;SDS011;4477;48.736;9.176;2023-04-08T04:20:47;21.13;;;16.03;;
8881;SDS011;4477;48.736;9.176;2023-04-08T04:23:14;21.70;;;17.10;;
8881;SDS011;4477;48.736;9.176;2023-04-08T04:25:42;23.60;;;18.47;;
8881;SDS011;4477;48.736;9.176;2023-04-08T04:28:09;22.87;;;19.03;;
8881;SDS011;4477;48.736;9.176;2023-04-08T04:30:36;26.17;;;20.23;;
8881;SDS011;4477;48.736;9.176;2023-04-08T04:33:03;28.50;;;20.37;;
8881;SDS011;4477;48.736;9.176;2023-04-08T04:35:32;27.60;;;21.67;;
8881;SDS011;4477;48.736;9.176;2023-04-08T04:37:59;28.67;;;22.33;;
8881;SDS011;4477;48.736;9.176;2023-04-08T04:40:27;29.20;;;22.43;;
8881;SDS011;4477;48.736;9.176;2023-04-08T04:42:54;32.23;;;23.80;;
8881;SDS011;4477;48.736;9.176;2023-04-08T04:45:21;31.80;;;24.60;;
8881;SDS011;4477;48.736;9.176;2023-04-08T04:47:48;34.43;;;26.20;;
8881;SDS011;4477;48.736;9.176;2023-04-08T04:50:15;36.00;;;25.50;;
8881;SDS011;4477;48.736;9.176;2023-04-08T04:52:43;35.50;;;26.63;;
8881;SDS011;4477;48.736;9.176;2023-04-08T04:55:10;36.40;;;26.40;;
8881;SDS011;4477;48.736;9.176;2023-04-08T04:57:39;36.70;;;26.93;;
8881;SDS011;4477;48.736;9.176;2023-04-08T05:00:08;37.10;;;28.13;;
8881;SDS011;4477;48.736;9.176;2023-04-08T05:02:36;41.60;;;29.17;;
8881;SDS011;4477;48.736;9.176;2023-04-08T05:05:03;38.47;;;29.83;;
8881;SDS011;4477;48.736;9.176;2023-04-08T05:07:30;44.93;;;30.43;;
8881;SDS011;4477;48.736;9.176;2023-04-08T05:09:59;43.63;;;31.77;;
8881;SDS011;4477;48.736;9.176;2023-04-08T05:12:26;47.50;;;34.07;;
8881;SDS011;4477;48.736;9.176;2023-04-08T05:14:53;50.43;;;37.07;;
8881;SDS011;4477;48.736;9.176;2023-04-08T05:17:20;50.20;;;36.90;;
8881;SDS011;4477;48.736;9.176;2023-04-08T05:19:47;52.30;;;37.53;;
8881;SDS011;4477;48.736;9.176;2023-04-08T05:22:15;50.13;;;36.40;;
8881;SDS011;4477;48.736;9.176;2023-04-08T05:24:42;50.00;;;36.00;;
8881;SDS011;4477;48.736;9.176;2023-04-08T05:27:11;50.30;;;36.90;;
8881;SDS011;4477;48.736;9.176;2023-04-08T05:29:38;54.17;;;37.90;;
8881;SDS011;4477;48.736;9.176;2023-04-08T05:32:05;49.47;;;37.17;;
8881;SDS011;4477;48.736;9.176;2023-04-08T05:34:32;50.70;;;35.37;;
8881;SDS011;4477;48.736;9.176;2023-04-08T05:36:59;44.43;;;34.57;;
8881;SDS011;4477;48.736;9.176;2023-04-08T05:39:26;44.73;;;32.47;;
8881;SDS011;4477;48.736;9.176;2023-04-08T05:41:53;41.47;;;33.13;;
8881;SDS011;4477;48.736;9.176;2023-04-08T05:44:22;42.03;;;32.13;;
8881;SDS011;4477;48.736;9.176;2023-04-08T05:46:49;40.77;;;31.47;;
8881;SDS011;4477;48.736;9.176;2023-04-08T05:49:16;40.63;;;31.00;;
8881;SDS011;4477;48.736;9.176;2023-04-08T05:51:43;36.13;;;28.37;;
8881;SDS011;4477;48.736;9.176;2023-04-08T05:54:10;37.63;;;28.57;;
8881;SDS011;4477;48.736;9.176;2023-04-08T05:56:37;34.03;;;26.80;;
8881;SDS011;4477;48.736;9.176;2023-04-08T05:59:04;33.17;;;26.87;;
8881;SDS011;4477;48.736;9.176;2023-04-08T06:01:33;28.10;;;24.07;;
8881;SDS011;4477;48.736;9.176;2023-04-08T06:04:00;30.53;;;24.97;;
8881;SDS011;4477;48.736;9.176;2023-04-08T06:06:27;32.17;;;26.60;;
8881;SDS011;4477;48.736;9.176;2023-04-08T06:08:54;30.27;;;25.97;;
8881;SDS011;4477;48.736;9.176;2023-04-08T06:11:23;29.37;;;25.10;;
8881;SDS011;4477;48.736;9.176;2023-04-08T06:13:51;27.33;;;23.90;;
8881;SDS011;4477;48.736;9.176;2023-04-08T06:16:18;27.43;;;24.47;;
8881;SDS011;4477;48.736;9.176;2023-04-08T06:18:46;29.03;;;23.60;;
8881;SDS011;4477;48.736;9.176;2023-04-08T06:21:13;30.70;;;25.77;;
8881;SDS011;4477;48.736;9.176;2023-04-08T06:23:40;31.33;;;26.20;;
8881;SDS011;4477;48.736;9.176;2023-04-08T06:26:08;31.47;;;27.03;;
8881;SDS011;4477;48.736;9.176;2023-04-08T06:28:35;30.47;;;25.57;;
8881;SDS011;4477;48.736;9.176;2023-04-08T06:31:02;28.90;;;24.83;;
8881;SDS011;4477;48.736;9.176;2023-04-08T06:33:29;31.27;;;26.50;;
8881;SDS011;4477;48.736;9.176;2023-04-08T06:36:04;31.77;;;25.97;;
8881;SDS011;4477;48.736;9.176;2023-04-08T06:38:31;29.67;;;24.83;;
8881;SDS011;4477;48.736;9.176;2023-04-08T06:41:00;24.07;;;21.47;;
8881;SDS011;4477;48.736;9.176;2023-04-08T06:43:28;28.10;;;23.43;;
8881;SDS011;4477;48.736;9.176;2023-04-08T06:45:55;25.50;;;22.17;;
8881;SDS011;4477;48.736;9.176;2023-04-08T06:48:22;22.97;;;20.20;;
8881;SDS011;4477;48.736;9.176;2023-04-08T06:50:52;22.47;;;19.37;;
8881;SDS011;4477;48.736;9.176;2023-04-08T06:53:21;21.90;;;19.60;;
8881;SDS011;4477;48.736;9.176;2023-04-08T06:55:48;20.67;;;18.47;;
8881;SDS011;4477;48.736;9.176;2023-04-08T06:58:15;22.13;;;19.00;;
8881;SDS011;4477;48.736;9.176;2023-04-08T07:00:42;21.53;;;19.23;;
8881;SDS011;4477;48.736;9.176;2023-04-08T07:03:09;20.43;;;17.77;;
8881;SDS011;4477;48.736;9.176;2023-04-08T07:05:36;20.27;;;18.00;;
8881;SDS011;4477;48.736;9.176;2023-04-08T07:08:04;20.87;;;18.57;;
8881;SDS011;4477;48.736;9.176;2023-04-08T07:10:33;21.03;;;18.73;;
8881;SDS011;4477;48.736;9.176;2023-04-08T07:13:00;22.40;;;19.90;;
8881;SDS011;4477;48.736;9.176;2023-04-08T07:15:27;21.47;;;18.63;;
8881;SDS011;4477;48.736;9.176;2023-04-08T07:17:55;20.10;;;17.90;;
8881;SDS011;4477;48.736;9.176;2023-04-08T07:20:22;22.33;;;19.93;;
8881;SDS011;4477;48.736;9.176;2023-04-08T07:22:50;21.00;;;18.47;;
8881;SDS011;4477;48.736;9.176;2023-04-08T07:25:17;20.40;;;18.23;;
8881;SDS011;4477;48.736;9.176;2023-04-08T07:27:46;21.03;;;18.73;;
8881;SDS011;4477;48.736;9.176;2023-04-08T07:30:13;22.37;;;18.47;;
8881;SDS011;4477;48.736;9.176;2023-04-08T07:32:40;21.90;;;19.13;;
8881;SDS011;4477;48.736;9.176;2023-04-08T07:35:08;20.37;;;18.20;;
8881;SDS011;4477;48.736;9.176;2023-04-08T07:37:35;19.87;;;17.60;;
8881;SDS011;4477;48.736;9.176;2023-04-08T07:40:02;19.67;;;17.57;;
8881;SDS011;4477;48.736;9.176;2023-04-08T07:42:29;20.60;;;17.90;;
8881;SDS011;4477;48.736;9.176;2023-04-08T07:44:58;19.03;;;16.47;;
8881;SDS011;4477;48.736;9.176;2023-04-08T07:47:25;18.43;;;16.53;;
8881;SDS011;4477;48.736;9.176;2023-04-08T07:49:52;19.77;;;17.23;;
8881;SDS011;4477;48.736;9.176;2023-04-08T07:52:19;18.23;;;16.33;;
8881;SDS011;4477;48.736;9.176;2023-04-08T07:54:46;18.07;;;16.17;;
8881;SDS011;4477;48.736;9.176;2023-04-08T07:57:13;17.03;;;15.23;;
8881;SDS011;4477;48.736;9.176;2023-04-08T07:59:40;15.70;;;14.03;;
8881;SDS011;4477;48.736;9.176;2023-04-08T08:02:09;16.90;;;14.87;;
8881;SDS011;4477;48.736;9.176;2023-04-08T08:04:36;17.20;;;14.60;;
8881;SDS011;4477;48.736;9.176;2023-04-08T08:07:03;16.00;;;14.33;;
8881;SDS011;4477;48.736;9.176;2023-04-08T08:09:30;17.23;;;15.43;;
8881;SDS011;4477;48.736;9.176;2023-04-08T08:11:57;15.07;;;13.47;;
8881;SDS011;4477;48.736;9.176;2023-04-08T08:14:24;17.87;;;14.13;;
8881;SDS011;4477;48.736;9.176;2023-04-08T08:16:52;14.83;;;13.33;;
8881;SDS011;4477;48.736;9.176;2023-04-08T08:19:22;15.67;;;14.03;;
8881;SDS011;4477;48.736;9.176;2023-04-08T08:21:49;14.10;;;12.70;;
8881;SDS011;4477;48.736;9.176;2023-04-08T08:24:16;15.30;;;13.73;;
8881;SDS011;4477;48.736;9.176;2023-04-08T08:26:43;14.97;;;13.47;;
8881;SDS011;4477;48.736;9.176;2023-04-08T08:29:13;15.23;;;13.10;;
8881;SDS011;4477;48.736;9.176;2023-04-08T08:31:40;15.87;;;14.27;;
8881;SDS011;4477;48.736;9.176;2023-04-08T08:34:07;15.33;;;13.73;;
8881;SDS011;4477;48.736;9.176;2023-04-08T08:36:36;15.10;;;13.50;;
8881;SDS011;4477;48.736;9.176;2023-04-08T08:39:03;16.03;;;14.43;;
8881;SDS011;4477;48.736;9.176;2023-04-08T08:41:32;15.10;;;13.70;;
8881;SDS011;4477;48.736;9.176;2023-04-08T08:44:01;14.57;;;13.17;;
8881;SDS011;4477;48.736;9.176;2023-04-08T08:46:28;15.70;;;14.07;;
8881;SDS011;4477;48.736;9.176;2023-04-08T08:48:55;15.40;;;13.73;;
8881;SDS011;4477;48.736;9.176;2023-04-08T08:51:23;16.13;;;14.53;;
8881;SDS011;4477;48.736;9.176;2023-04-08T08:53:51;14.90;;;13.50;;
8881;SDS011;4477;48.736;9.176;2023-04-08T08:56:18;14.53;;;13.13;;
8881;SDS011;4477;48.736;9.176;2023-04-08T08:58:46;13.97;;;12.67;;
8881;SDS011;4477;48.736;9.176;2023-04-08T09:01:29;14.90;;;13.40;;
8881;SDS011;4477;48.736;9.176;2023-04-08T09:04:05;15.20;;;13.60;;
8881;SDS011;4477;48.736;9.176;2023-04-08T09:06:33;17.77;;;13.70;;
8881;SDS011;4477;48.736;9.176;2023-04-08T09:09:01;14.70;;;13.30;;
8881;SDS011;4477;48.736;9.176;2023-04-08T09:11:30;14.27;;;12.87;;
8881;SDS011;4477;48.736;9.176;2023-04-08T09:13:57;14.00;;;12.60;;
8881;SDS011;4477;48.736;9.176;2023-04-08T09:16:24;14.10;;;12.67;;
8881;SDS011;4477;48.736;9.176;2023-04-08T09:18:53;14.67;;;13.20;;
8881;SDS011;4477;48.736;9.176;2023-04-08T09:21:21;14.63;;;13.10;;
8881;SDS011;4477;48.736;9.176;2023-04-08T09:23:49;14.73;;;13.33;;
8881;SDS011;4477;48.736;9.176;2023-04-08T09:26:19;13.63;;;12.43;;
8881;SDS011;4477;48.736;9.176;2023-04-08T09:28:56;14.50;;;13.00;;
8881;SDS011;4477;48.736;9.176;2023-04-08T09:31:24;15.63;;;14.10;;
8881;SDS011;4477;48.736;9.176;2023-04-08T09:33:53;14.60;;;13.20;;
8881;SDS011;4477;48.736;9.176;2023-04-08T09:36:20;14.63;;;13.23;;
8881;SDS011;4477;48.736;9.176;2023-04-08T09:38:48;13.73;;;12.40;;
8881;SDS011;4477;48.736;9.176;2023-04-08T09:41:15;14.33;;;12.93;;
8881;SDS011;4477;48.736;9.176;2023-04-08T09:43:46;15.27;;;13.77;;
8881;SDS011;4477;48.736;9.176;2023-04-08T09:46:16;14.20;;;12.70;;
8881;SDS011;4477;48.736;9.176;2023-04-08T09:48:48;14.10;;;12.60;;
8881;SDS011;4477;48.736;9.176;2023-04-08T09:51:18;14.43;;;13.03;;
8881;SDS011;4477;48.736;9.176;2023-04-08T09:53:46;14.10;;;12.80;;
8881;SDS011;4477;48.736;9.176;2023-04-08T09:56:13;13.73;;;12.30;;
8881;SDS011;4477;48.736;9.176;2023-04-08T09:58:44;12.63;;;11.47;;
8881;SDS011;4477;48.736;9.176;2023-04-08T10:01:13;13.13;;;11.83;;
8881;SDS011;4477;48.736;9.176;2023-04-08T10:03:44;13.67;;;12.27;;
8881;SDS011;4477;48.736;9.176;2023-04-08T10:06:12;15.60;;;11.90;;
8881;SDS011;4477;48.736;9.176;2023-04-08T10:08:40;13.07;;;11.77;;
8881;SDS011;4477;48.736;9.176;2023-04-08T10:11:07;14.33;;;11.80;;
8881;SDS011;4477;48.736;9.176;2023-04-08T10:13:35;13.87;;;12.47;;
8881;SDS011;4477;48.736;9.176;2023-04-08T10:16:20;13.60;;;12.20;;
8881;SDS011;4477;48.736;9.176;2023-04-08T10:18:49;13.23;;;11.97;;
8881;SDS011;4477;48.736;9.176;2023-04-08T10:21:32;13.10;;;11.73;;
8881;SDS011;4477;48.736;9.176;2023-04-08T10:24:01;13.83;;;12.47;;
8881;SDS011;4477;48.736;9.176;2023-04-08T10:26:32;14.13;;;12.83;;
8881;SDS011;4477;48.736;9.176;2023-04-08T10:32:01;13.33;;;12.03;;
8881;SDS011;4477;48.736;9.176;2023-04-08T10:34:30;13.37;;;12.07;;
8881;SDS011;4477;48.736;9.176;2023-04-08T10:36:57;12.90;;;11.70;;
8881;SDS011;4477;48.736;9.176;2023-04-08T10:39:26;13.60;;;12.20;;
8881;SDS011;4477;48.736;9.176;2023-04-08T10:41:53;13.30;;;11.87;;
8881;SDS011;4477;48.736;9.176;2023-04-08T10:44:21;13.77;;;12.47;;
8881;SDS011;4477;48.736;9.176;2023-04-08T10:46:49;13.20;;;11.90;;
8881;SDS011;4477;48.736;9.176;2023-04-08T10:49:19;13.50;;;12.20;;
8881;SDS011;4477;48.736;9.176;2023-04-08T10:51:49;14.47;;;12.97;;
8881;SDS011;4477;48.736;9.176;2023-04-08T10:54:16;14.93;;;13.53;;
8881;SDS011;4477;48.736;9.176;2023-04-08T10:56:44;15.80;;;14.27;;
8881;SDS011;4477;48.736;9.176;2023-04-08T10:59:12;14.13;;;12.73;;
8881;SDS011;4477;48.736;9.176;2023-04-08T11:01:41;14.03;;;12.73;;
8881;SDS011;4477;48.736;9.176;2023-04-08T11:04:10;14.40;;;13.00;;
8881;SDS011;4477;48.736;9.176;2023-04-08T11:06:42;14.13;;;12.90;;
8881;SDS011;4477;48.736;9.176;2023-04-08T11:09:10;13.77;;;12.37;;
8881;SDS011;4477;48.736;9.176;2023-04-08T11:11:38;15.20;;;13.60;;
8881;SDS011;4477;48.736;9.176;2023-04-08T11:14:07;14.73;;;13.30;;
8881;SDS011;4477;48.736;9.176;2023-04-08T11:16:37;13.73;;;12.50;;
8881;SDS011;4477;48.736;9.176;2023-04-08T11:19:04;14.73;;;13.23;;
8881;SDS011;4477;48.736;9.176;2023-04-08T11:21:34;14.17;;;12.80;;
8881;SDS011;4477;48.736;9.176;2023-04-08T11:24:07;15.10;;;13.60;;
8881;SDS011;4477;48.736;9.176;2023-04-08T11:26:36;13.93;;;12.50;;
8881;SDS011;4477;48.736;9.176;2023-04-08T11:29:04;13.80;;;12.50;;
8881;SDS011;4477;48.736;9.176;2023-04-08T11:31:34;13.37;;;11.97;;
8881;SDS011;4477;48.736;9.176;2023-04-08T11:34:01;13.57;;;12.17;;
8881;SDS011;4477;48.736;9.176;2023-04-08T11:36:28;14.23;;;12.73;;
8881;SDS011;4477;48.736;9.176;2023-04-08T11:38:55;12.67;;;11.37;;
8881;SDS011;4477;48.736;9.176;2023-04-08T11:41:24;13.33;;;11.80;;
8881;SDS011;4477;48.736;9.176;2023-04-08T11:44:03;13.50;;;12.17;;
8881;SDS011;4477;48.736;9.176;2023-04-08T11:46:31;13.63;;;12.23;;
8881;SDS011;4477;48.736;9.176;2023-04-08T11:49:01;13.60;;;12.30;;
8881;SDS011;4477;48.736;9.176;2023-04-08T11:51:29;13.93;;;12.43;;
8881;SDS011;4477;48.736;9.176;2023-04-08T11:53:59;15.47;;;12.37;;
8881;SDS011;4477;48.736;9.176;2023-04-08T11:56:42;14.87;;;13.47;;
8881;SDS011;4477;48.736;9.176;2023-04-08T11:59:11;12.77;;;11.67;;
8881;SDS011;4477;48.736;9.176;2023-04-08T12:01:39;13.63;;;12.37;;
8881;SDS011;4477;48.736;9.176;2023-04-08T12:04:06;14.60;;;13.20;;
8881;SDS011;4477;48.736;9.176;2023-04-08T12:06:34;13.30;;;11.97;;
8881;SDS011;4477;48.736;9.176;2023-04-08T12:09:01;13.47;;;12.17;;
8881;SDS011;4477;48.736;9.176;2023-04-08T12:11:28;14.77;;;13.30;;
8881;SDS011;4477;48.736;9.176;2023-04-08T12:13:56;13.73;;;12.30;;
8881;SDS011;4477;48.736;9.176;2023-04-08T12:16:23;14.20;;;12.53;;
8881;SDS011;4477;48.736;9.176;2023-04-08T12:18:49;13.57;;;12.27;;
8881;SDS011;4477;48.736;9.176;2023-04-08T12:21:16;14.10;;;12.70;;
8881;SDS011;4477;48.736;9.176;2023-04-08T12:23:44;13.57;;;12.07;;
8881;SDS011;4477;48.736;9.176;2023-04-08T12:26:10;14.33;;;13.03;;
8881;SDS011;4477;48.736;9.176;2023-04-08T12:28:37;14.53;;;13.03;;
8881;SDS011;4477;48.736;9.176;2023-04-08T12:31:05;14.20;;;12.80;;
8881;SDS011;4477;48.736;9.176;2023-04-08T12:33:34;14.27;;;12.97;;
8881;SDS011;4477;48.736;9.176;2023-04-08T12:36:01;14.20;;;12.87;;
8881;SDS011;4477;48.736;9.176;2023-04-08T12:38:28;14.00;;;12.50;;
8881;SDS011;4477;48.736;9.176;2023-04-08T12:40:55;14.07;;;12.67;;
8881;SDS011;4477;48.736;9.176;2023-04-08T12:43:22;14.57;;;12.60;;
8881;SDS011;4477;48.736;9.176;2023-04-08T12:45:49;14.30;;;12.80;;
8881;SDS011;4477;48.736;9.176;2023-04-08T12:48:19;14.23;;;12.77;;
8881;SDS011;4477;48.736;9.176;2023-04-08T12:50:46;13.60;;;12.30;;
8881;SDS011;4477;48.736;9.176;2023-04-08T12:53:12;13.47;;;12.17;;
8881;SDS011;4477;48.736;9.176;2023-04-08T12:55:39;13.63;;;12.33;;
8881;SDS011;4477;48.736;9.176;2023-04-08T12:58:06;13.30;;;12.00;;
8881;SDS011;4477;48.736;9.176;2023-04-08T13:00:33;13.37;;;11.97;;
8881;SDS011;4477;48.736;9.176;2023-04-08T13:03:02;13.17;;;11.97;;
8881;SDS011;4477;48.736;9.176;2023-04-08T13:05:31;13.63;;;12.23;;
8881;SDS011;4477;48.736;9.176;2023-04-08T13:08:00;13.03;;;11.77;;
8881;SDS011;4477;48.736;9.176;2023-04-08T13:10:26;13.77;;;12.37;;
8881;SDS011;4477;48.736;9.176;2023-04-08T13:12:54;14.50;;;12.93;;
8881;SDS011;4477;48.736;9.176;2023-04-08T13:15:24;13.83;;;12.43;;
8881;SDS011;4477;48.736;9.176;2023-04-08T13:17:51;15.83;;;12.97;;
8881;SDS011;4477;48.736;9.176;2023-04-08T13:20:18;14.00;;;12.50;;
8881;SDS011;4477;48.736;9.176;2023-04-08T13:22:51;14.47;;;13.13;;
8881;SDS011;4477;48.736;9.176;2023-04-08T13:25:18;13.67;;;12.33;;
8881;SDS011;4477;48.736;9.176;2023-04-08T13:27:45;13.80;;;12.40;;
8881;SDS011;4477;48.736;9.176;2023-04-08T13:30:11;13.60;;;12.23;;
8881;SDS011;4477;48.736;9.176;2023-04-08T13:32:39;14.73;;;13.23;;
8881;SDS011;4477;48.736;9.176;2023-04-08T13:35:06;13.97;;;12.57;;
8881;SDS011;4477;48.736;9.176;2023-04-08T13:37:33;14.63;;;13.23;;
8881;SDS011;4477;48.736;9.176;2023-04-08T13:40:01;16.23;;;13.23;;
8881;SDS011;4477;48.736;9.176;2023-04-08T13:42:30;14.40;;;12.90;;
8881;SDS011;4477;48.736;9.176;2023-04-08T13:44:56;14.03;;;12.30;;
8881;SDS011;4477;48.736;9.176;2023-04-08T13:47:26;13.00;;;11.70;;
8881;SDS011;4477;48.736;9.176;2023-04-08T13:49:55;14.03;;;12.50;;
8881;SDS011;4477;48.736;9.176;2023-04-08T13:52:22;14.13;;;12.73;;
8881;SDS011;4477;48.736;9.176;2023-04-08T13:54:50;14.17;;;12.50;;
8881;SDS011;4477;48.736;9.176;2023-04-08T13:57:19;13.97;;;12.67;;
8881;SDS011;4477;48.736;9.176;2023-04-08T13:59:45;14.53;;;12.53;;
8881;SDS011;4477;48.736;9.176;2023-04-08T14:02:12;12.97;;;11.77;;
8881;SDS011;4477;48.736;9.176;2023-04-08T14:04:39;13.57;;;11.90;;
8881;SDS011;4477;48.736;9.176;2023-04-08T14:07:07;13.47;;;12.17;;
8881;SDS011;4477;48.736;9.176;2023-04-08T14:09:34;14.00;;;12.60;;
8881;SDS011;4477;48.736;9.176;2023-04-08T14:12:01;13.00;;;11.67;;
8881;SDS011;4477;48.736;9.176;2023-04-08T14:14:29;14.03;;;12.73;;
8881;SDS011;4477;48.736;9.176;2023-04-08T14:16:56;13.57;;;12.20;;
8881;SDS011;4477;48.736;9.176;2023-04-08T14:19:23;13.50;;;12.20;;
8881;SDS011;4477;48.736;9.176;2023-04-08T14:21:51;12.93;;;11.70;;
8881;SDS011;4477;48.736;9.176;2023-04-08T14:24:18;13.57;;;12.27;;
8881;SDS011;4477;48.736;9.176;2023-04-08T14:26:45;12.83;;;11.57;;
8881;SDS011;4477;48.736;9.176;2023-04-08T14:29:13;13.27;;;12.03;;
8881;SDS011;4477;48.736;9.176;2023-04-08T14:31:42;13.63;;;12.23;;
8881;SDS011;4477;48.736;9.176;2023-04-08T14:34:08;13.80;;;12.50;;
8881;SDS011;4477;48.736;9.176;2023-04-08T14:36:35;14.53;;;13.23;;
8881;SDS011;4477;48.736;9.176;2023-04-08T14:39:02;12.93;;;11.70;;
8881;SDS011;4477;48.736;9.176;2023-04-08T14:41:32;13.70;;;12.43;;
8881;SDS011;4477;48.736;9.176;2023-04-08T14:43:59;13.10;;;11.83;;
8881;SDS011;4477;48.736;9.176;2023-04-08T14:46:27;14.00;;;12.70;;
8881;SDS011;4477;48.736;9.176;2023-04-08T14:48:55;13.30;;;12.10;;
8881;SDS011;4477;48.736;9.176;2023-04-08T14:51:22;14.17;;;12.87;;
8881;SDS011;4477;48.736;9.176;2023-04-08T14:53:50;13.40;;;12.07;;
8881;SDS011;4477;48.736;9.176;2023-04-08T14:56:17;13.00;;;11.77;;